Time;durP1;ratioP1;P1;durP2;ratioP2;P2;SDS_P1;SDS_P2;PMS_P1;PMS_P2;Temp;Humidity;BMP_temperature;BMP_pressure;BME280_temperature;BME280_humidity;BME280_pressure;Samples;Min_cycle;Max_cycle;Signal;HPM_P1;HPM_P2
2021/03/26 00:01:39;;;;;;;25.50;14.65;;;;;;;9.92;66.23;100892.69;4994672;28;20140;-85
2021/03/26 00:04:06;;;;;;;25.40;14.30;;;;;;;9.92;66.61;100890.91;4994221;28;20046;-85
2021/03/26 00:06:39;;;;;;;25.52;14.93;;;;;;;9.92;66.53;100900.63;5000518;28;20054;-88
2021/03/26 00:09:08;;;;;;;22.55;14.02;;;;;;;9.96;66.59;100894.31;4994971;28;20051;-86
2021/03/26 00:11:37;;;;;;;24.25;15.50;;;;;;;9.96;66.79;100892.53;4995322;28;20051;-85
2021/03/26 00:14:03;;;;;;;23.48;14.95;;;;;;;9.96;66.97;100889.88;4988794;28;20062;-88
2021/03/26 00:16:29;;;;;;;25.48;15.40;;;;;;;9.98;66.82;100888.03;5004743;28;20054;-85
2021/03/26 00:18:57;;;;;;;23.05;14.90;;;;;;;9.96;66.71;100881.94;4992928;28;20065;-87
2021/03/26 00:21:24;;;;;;;21.58;14.25;;;;;;;9.93;67.11;100884.69;4979595;28;20138;-86
2021/03/26 00:23:51;;;;;;;22.60;15.00;;;;;;;9.90;67.20;100874.25;4971785;28;20083;-85
2021/03/26 00:26:18;;;;;;;25.33;15.63;;;;;;;9.90;67.32;100878.69;4991764;28;20058;-85
2021/03/26 00:28:45;;;;;;;23.80;14.20;;;;;;;9.90;67.27;100891.91;4985193;28;20061;-86
2021/03/26 00:31:11;;;;;;;21.65;13.18;;;;;;;9.92;67.16;100887.38;4990718;28;20141;-85
2021/03/26 00:33:38;;;;;;;26.92;14.25;;;;;;;9.92;67.25;100887.38;4982148;28;20094;-86
2021/03/26 00:36:06;;;;;;;25.52;14.00;;;;;;;9.89;67.27;100883.09;4992534;28;20050;-85
2021/03/26 00:38:32;;;;;;;24.13;14.57;;;;;;;9.89;67.49;100884.88;4999983;28;20089;-84
2021/03/26 00:40:59;;;;;;;22.20;13.60;;;;;;;9.89;67.42;100887.53;4978619;28;20058;-85
2021/03/26 00:43:25;;;;;;;21.67;13.73;;;;;;;9.87;67.73;100879.66;4998025;28;20118;-83
2021/03/26 00:45:51;;;;;;;21.00;13.85;;;;;;;9.88;67.58;100884.03;4985252;28;20054;-84
2021/03/26 00:48:20;;;;;;;21.05;13.05;;;;;;;9.86;67.46;100885.84;4986242;28;20554;-84
2021/03/26 00:50:53;;;;;;;26.73;13.50;;;;;;;9.86;67.35;100880.56;4991885;28;20054;-86
2021/03/26 00:53:23;;;;;;;21.27;12.45;;;;;;;9.87;67.29;100873.50;4979371;28;20093;-85
2021/03/26 00:55:53;;;;;;;21.02;12.52;;;;;;;9.84;67.48;100877.09;4981416;28;20150;-86
2021/03/26 00:58:20;;;;;;;16.92;11.10;;;;;;;9.80;67.43;100872.84;4976775;28;20094;-85
2021/03/26 01:00:47;;;;;;;18.45;12.40;;;;;;;9.80;67.51;100880.78;4978930;28;20218;-86
2021/03/26 01:03:13;;;;;;;17.45;11.35;;;;;;;9.79;67.61;100886.97;4992561;28;20058;-86
2021/03/26 01:05:45;;;;;;;19.98;11.77;;;;;;;9.76;67.78;100889.72;4982067;28;20073;-84
2021/03/26 01:08:12;;;;;;;17.42;11.23;;;;;;;9.74;68.32;100881.88;4962302;28;20061;-84
2021/03/26 01:10:44;;;;;;;20.55;11.80;;;;;;;9.73;68.20;100893.38;4989854;28;20148;-85
2021/03/26 01:13:12;;;;;;;19.90;11.88;;;;;;;9.71;68.24;100887.28;4981536;28;20149;-84
2021/03/26 01:15:39;;;;;;;20.45;11.98;;;;;;;9.71;68.38;100889.03;4976018;28;20123;-85
2021/03/26 01:18:07;;;;;;;21.98;12.25;;;;;;;9.72;68.73;100882.84;4974957;28;20047;-85
2021/03/26 01:20:38;;;;;;;20.23;11.77;;;;;;;9.74;68.60;100887.16;4981589;28;20057;-83
2021/03/26 01:23:06;;;;;;;19.55;12.13;;;;;;;9.74;68.75;100896.88;4961251;28;20063;-84
2021/03/26 01:25:36;;;;;;;19.77;12.07;;;;;;;9.73;68.95;100889.84;4958883;29;20051;-84
2021/03/26 01:28:05;;;;;;;27.08;13.43;;;;;;;9.68;69.17;100890.00;4976136;28;20055;-85
2021/03/26 01:30:32;;;;;;;19.17;12.15;;;;;;;9.66;69.50;100888.34;4986391;28;20119;-84
2021/03/26 01:33:01;;;;;;;24.85;13.10;;;;;;;9.62;69.72;100892.00;4978696;28;20179;-86
2021/03/26 01:35:30;;;;;;;24.58;13.15;;;;;;;9.62;69.65;100892.84;4998462;28;20046;-85
2021/03/26 01:37:56;;;;;;;23.52;13.30;;;;;;;9.63;69.86;100896.38;4981308;28;22005;-86
2021/03/26 01:40:27;;;;;;;25.50;13.90;;;;;;;9.64;70.13;100892.81;4998218;28;20066;-86
2021/03/26 01:43:03;;;;;;;22.75;13.32;;;;;;;9.63;69.86;100885.78;5007892;28;20066;-85
2021/03/26 01:45:30;;;;;;;20.00;12.80;;;;;;;9.66;69.96;100893.63;4991990;28;20058;-87
2021/03/26 01:47:58;;;;;;;21.13;12.35;;;;;;;9.66;70.18;100890.97;4985377;28;20143;-86
2021/03/26 01:50:30;;;;;;;20.90;12.30;;;;;;;9.59;69.95;100878.91;4982450;28;20118;-85
2021/03/26 01:52:57;;;;;;;22.02;12.52;;;;;;;9.61;70.26;100890.28;5000962;28;20081;-84
2021/03/26 01:55:39;;;;;;;21.30;12.13;;;;;;;9.57;69.76;100883.38;4997983;28;20054;-85
2021/03/26 01:58:05;;;;;;;18.73;10.82;;;;;;;9.56;69.80;100885.16;5003607;28;20138;-85
2021/03/26 02:00:44;;;;;;;21.67;11.55;;;;;;;9.52;69.94;100883.53;5003354;28;20055;-84
2021/03/26 02:03:28;;;;;;;16.90;10.20;;;;;;;9.46;69.79;100883.75;4992515;28;20142;-84
2021/03/26 02:05:59;;;;;;;20.05;11.20;;;;;;;9.43;70.19;100881.22;4983209;28;20046;-83
2021/03/26 02:08:29;;;;;;;17.38;10.93;;;;;;;9.40;70.00;100884.84;4965843;29;20119;-84
2021/03/26 02:11:00;;;;;;;19.33;10.98;;;;;;;9.41;70.35;100885.69;4972316;28;20104;-83
2021/03/26 02:13:33;;;;;;;24.63;12.10;;;;;;;9.37;70.45;100881.41;4992697;28;20169;-84
2021/03/26 02:16:02;;;;;;;20.08;10.48;;;;;;;9.35;70.46;100877.97;4980515;28;20053;-85
2021/03/26 02:18:33;;;;;;;16.70;10.85;;;;;;;9.34;70.70;100886.81;4974529;28;20042;-84
2021/03/26 02:21:15;;;;;;;16.85;10.00;;;;;;;9.34;70.78;100876.22;4975242;28;20054;-84
2021/03/26 02:23:44;;;;;;;17.45;10.70;;;;;;;9.33;70.74;100875.38;4975531;28;20518;-83
2021/03/26 02:26:18;;;;;;;18.02;10.65;;;;;;;9.33;71.02;100879.78;4958979;28;20475;-85
2021/03/26 02:28:45;;;;;;;19.65;10.73;;;;;;;9.35;71.04;100877.97;4978272;28;20542;-84
2021/03/26 02:31:12;;;;;;;18.88;11.18;;;;;;;9.36;71.06;100869.97;4971688;28;20142;-85
2021/03/26 02:33:40;;;;;;;23.60;11.23;;;;;;;9.35;71.00;100876.19;5003552;28;20054;-84
2021/03/26 02:36:13;;;;;;;18.67;11.27;;;;;;;9.36;71.25;100880.56;4987197;28;20098;-84
2021/03/26 02:38:43;;;;;;;17.90;11.30;;;;;;;9.37;70.75;100884.94;4987541;28;20047;-86
2021/03/26 02:41:25;;;;;;;17.40;10.38;;;;;;;9.36;71.22;100883.19;4997444;28;20079;-83
2021/03/26 02:44:01;;;;;;;14.95;10.20;;;;;;;9.36;71.11;100879.69;4986193;28;20129;-84
2021/03/26 02:46:57;;;;;;;17.83;10.13;;;;;;;9.39;70.86;100884.88;4995183;28;20047;-84
2021/03/26 02:49:32;;;;;;;20.77;11.10;;;;;;;9.36;70.52;100880.56;4982939;28;20118;-85
2021/03/26 02:52:18;;;;;;;17.45;10.52;;;;;;;9.34;70.72;100871.81;4993540;28;20050;-86
2021/03/26 02:54:55;;;;;;;17.33;10.63;;;;;;;9.29;70.71;100871.09;4949644;28;20065;-85
2021/03/26 02:57:37;;;;;;;20.98;10.38;;;;;;;9.27;70.98;100878.25;4963090;28;20077;-85
2021/03/26 03:00:15;;;;;;;20.45;10.18;;;;;;;9.28;71.11;100884.41;4968173;28;20367;-85
2021/03/26 03:02:43;;;;;;;19.67;10.40;;;;;;;9.25;70.80;100885.34;4975904;28;20470;-84
2021/03/26 03:05:19;;;;;;;16.80;9.55;;;;;;;9.23;70.99;100887.19;4980832;28;20074;-84
2021/03/26 03:07:50;;;;;;;16.95;9.70;;;;;;;9.22;70.97;100881.94;4980732;28;20847;-86
2021/03/26 03:10:30;;;;;;;20.67;10.07;;;;;;;9.20;71.30;100884.63;4985987;28;20490;-85
2021/03/26 03:13:12;;;;;;;18.38;10.43;;;;;;;9.16;71.08;100883.00;4977434;28;20077;-82
2021/03/26 03:15:47;;;;;;;18.85;10.07;;;;;;;9.13;71.13;100885.75;4967730;28;20057;-82
2021/03/26 03:18:35;;;;;;;19.70;10.55;;;;;;;9.14;71.42;100882.19;4986437;28;20082;-87
2021/03/26 03:21:11;;;;;;;16.45;9.82;;;;;;;9.09;71.40;100873.56;4981656;28;20059;-84
2021/03/26 03:23:53;;;;;;;16.73;9.68;;;;;;;9.05;71.40;100872.81;4980172;28;20054;-83
2021/03/26 03:26:31;;;;;;;17.85;9.48;;;;;;;9.03;71.55;100874.63;4976779;28;20067;-83
2021/03/26 03:29:06;;;;;;;14.88;9.60;;;;;;;9.01;71.52;100878.22;4972776;28;20082;-85
2021/03/26 03:31:43;;;;;;;19.35;10.20;;;;;;;9.01;71.76;100873.81;4997030;28;20121;-87
2021/03/26 03:34:18;;;;;;;14.73;9.30;;;;;;;9.03;71.52;100879.03;5017703;28;20046;-85
2021/03/26 03:36:51;;;;;;;18.67;9.82;;;;;;;9.08;71.35;100874.47;5008789;28;20094;-85
2021/03/26 03:39:34;;;;;;;17.42;9.88;;;;;;;9.09;71.36;100865.66;4999816;28;20086;-83
2021/03/26 03:42:30;;;;;;;16.65;10.10;;;;;;;9.07;71.57;100868.34;5002203;28;20043;-83
2021/03/26 03:45:01;;;;;;;20.33;9.82;;;;;;;9.03;71.71;100863.19;4987700;28;20133;-83
2021/03/26 03:47:39;;;;;;;;;;;;;;;9.03;71.47;100871.13;4994562;28;20067;-82
2021/03/26 03:50:14;;;;;;;19.15;10.27;;;;;;;9.03;71.59;100864.06;4977532;29;19922;-84
2021/03/26 03:53:07;;;;;;;16.65;10.07;;;;;;;8.99;71.55;100858.91;4963813;29;20087;-85
2021/03/26 03:55:54;;;;;;;17.83;10.23;;;;;;;9.04;71.55;100868.44;4983412;28;20130;-85
2021/03/26 03:58:28;;;;;;;16.65;10.13;;;;;;;9.04;71.41;100867.56;5008196;28;20062;-83
2021/03/26 04:01:29;;;;;;;21.02;10.65;;;;;;;9.04;71.48;100865.78;4987648;28;20051;-84
2021/03/26 04:03:59;;;;;;;;;;;;;;;9.09;71.26;100874.44;4974831;28;20493;-87
2021/03/26 04:06:54;;;;;;;16.55;10.15;;;;;;;9.08;71.15;100866.56;4966008;28;19926;-86
2021/03/26 04:09:25;;;;;;;15.70;9.80;;;;;;;9.06;71.48;100866.59;4974601;28;20139;-84
2021/03/26 04:12:00;;;;;;;19.92;10.85;;;;;;;9.09;71.43;100865.66;4985448;28;20051;-86
2021/03/26 04:14:33;;;;;;;19.15;10.65;;;;;;;9.07;71.42;100863.06;4991112;28;20145;-86
2021/03/26 04:17:07;;;;;;;19.80;10.85;;;;;;;9.03;71.38;100865.84;4961557;28;20126;-84
2021/03/26 04:19:38;;;;;;;19.60;10.23;;;;;;;9.00;71.62;100863.28;4982955;28;20403;-84
2021/03/26 04:22:10;;;;;;;18.45;9.98;;;;;;;9.00;71.53;100864.16;4978689;28;20051;-85
2021/03/26 04:24:46;;;;;;;16.75;10.48;;;;;;;8.97;71.59;100858.97;4983049;28;20059;-85
2021/03/26 04:27:15;;;;;;;19.45;11.43;;;;;;;8.99;71.69;100870.34;4970465;28;20053;-84
2021/03/26 04:29:50;;;;;;;16.27;10.50;;;;;;;9.00;71.75;100874.72;4985618;28;20077;-84
2021/03/26 04:32:22;;;;;;;17.00;10.23;;;;;;;9.01;71.70;100870.31;4984862;28;20114;-85
2021/03/26 04:34:51;;;;;;;16.52;10.13;;;;;;;9.02;71.59;100872.03;4979877;28;20061;-84
2021/03/26 04:37:41;;;;;;;17.45;10.25;;;;;;;9.04;71.45;100867.56;4967012;28;20058;-86
2021/03/26 04:40:14;;;;;;;18.90;11.30;;;;;;;9.00;71.61;100861.50;4976039;28;20455;-85
2021/03/26 04:42:49;;;;;;;18.15;10.18;;;;;;;8.97;71.76;100858.13;4987832;28;20058;-85
2021/03/26 04:45:54;;;;;;;18.58;10.65;;;;;;;8.99;71.91;100869.47;4972631;28;20494;-85
2021/03/26 04:48:32;;;;;;;20.02;10.60;;;;;;;8.98;71.80;100857.19;4991814;28;20053;-85
2021/03/26 04:51:13;;;;;;;19.30;10.90;;;;;;;8.95;72.02;100865.25;4976971;28;20051;-84
2021/03/26 04:53:48;;;;;;;18.45;11.00;;;;;;;8.93;72.12;100872.34;4985296;28;20050;-85
2021/03/26 04:56:21;;;;;;;18.58;10.82;;;;;;;8.94;71.98;100869.66;4988059;28;20050;-86
2021/03/26 04:58:56;;;;;;;23.38;12.43;;;;;;;8.96;71.72;100869.59;4984061;28;20129;-85
2021/03/26 05:01:32;;;;;;;18.40;11.13;;;;;;;8.97;71.97;100860.78;4974057;28;20054;-83
2021/03/26 05:04:07;;;;;;;18.50;11.38;;;;;;;8.98;71.64;100867.75;4978450;28;20141;-83
2021/03/26 05:06:42;;;;;;;21.73;12.45;;;;;;;8.98;71.51;100868.63;4979760;28;20046;-84
2021/03/26 05:09:19;;;;;;;21.90;11.95;;;;;;;9.01;71.62;100870.31;5008456;28;20054;-87
2021/03/26 05:11:50;;;;;;;19.80;12.27;;;;;;;9.00;71.43;100866.78;5001006;28;20030;-84
2021/03/26 05:14:33;;;;;;;22.77;12.80;;;;;;;8.97;71.41;100871.34;4995298;28;20054;-84
2021/03/26 05:17:07;;;;;;;21.45;13.13;;;;;;;8.91;71.29;100872.38;4995841;28;20070;-83
2021/03/26 05:19:43;;;;;;;21.58;12.60;;;;;;;8.88;71.36;100867.19;4984989;28;20080;-83
2021/03/26 05:22:28;;;;;;;23.73;14.43;;;;;;;8.85;71.57;100871.72;4988214;28;20542;-83
2021/03/26 05:25:21;;;;;;;24.52;13.90;;;;;;;8.88;71.59;100867.19;4994719;28;20050;-82
2021/03/26 05:27:48;;;;;;;20.63;13.20;;;;;;;8.95;71.11;100873.16;4987652;28;20051;-85
2021/03/26 05:30:23;;;;;;;23.67;13.05;;;;;;;8.99;71.44;100872.13;5003245;28;20055;-84
2021/03/26 05:33:09;;;;;;;23.92;13.27;;;;;;;9.03;71.00;100877.25;5002368;28;20066;-85
2021/03/26 05:35:57;;;;;;;24.55;13.55;;;;;;;9.06;70.64;100873.66;4990795;28;20042;-83
2021/03/26 05:38:29;;;;;;;29.10;14.45;;;;;;;9.07;70.79;100880.69;4990967;28;20375;-83
2021/03/26 05:41:30;;;;;;;22.83;13.93;;;;;;;9.07;70.63;100878.91;4994059;28;20117;-85
2021/03/26 05:44:38;;;;;;;23.92;14.50;;;;;;;9.12;70.51;100884.03;4984791;28;20046;-83
2021/03/26 05:47:27;;;;;;;23.58;13.77;;;;;;;9.14;70.57;100892.75;4969214;28;20051;-85
2021/03/26 05:49:56;;;;;;;23.50;14.63;;;;;;;9.13;70.63;100883.97;4990159;28;20064;-82
2021/03/26 05:52:44;;;;;;;24.17;13.82;;;;;;;9.10;70.43;100893.78;4980685;28;20051;-83
2021/03/26 05:55:35;;;;;;;25.58;14.40;;;;;;;9.12;70.77;100886.69;4997592;28;20055;-83
2021/03/26 05:58:25;;;;;;;27.20;14.10;;;;;;;9.17;70.82;100891.78;5003427;28;20098;-85
2021/03/26 06:01:10;;;;;;;24.27;13.32;;;;;;;9.28;70.88;100893.19;4985777;28;20062;-83
2021/03/26 06:04:13;;;;;;;22.58;12.80;;;;;;;9.36;70.40;100885.84;4961083;28;20055;-83
2021/03/26 06:07:04;;;;;;;24.73;13.25;;;;;;;9.45;70.06;100885.50;4969532;28;20062;-84
2021/03/26 06:09:41;;;;;;;26.90;14.18;;;;;;;9.51;69.86;100881.81;4971203;28;20465;-84
2021/03/26 06:12:22;;;;;;;25.63;14.15;;;;;;;9.61;69.01;100890.28;4986154;28;20082;-83
2021/03/26 06:15:23;;;;;;;24.00;13.75;;;;;;;9.62;69.03;100887.56;4986478;28;20109;-83
2021/03/26 06:18:15;;;;;;;22.50;13.95;;;;;;;9.66;69.31;100891.84;4975871;28;20055;-82
2021/03/26 06:20:58;;;;;;;25.50;13.43;;;;;;;9.72;69.38;100896.06;4955142;28;20055;-84
2021/03/26 06:23:57;;;;;;;25.63;13.88;;;;;;;9.80;68.97;100894.00;4978331;28;20114;-84
2021/03/26 06:27:06;;;;;;;27.13;14.57;;;;;;;9.85;68.34;100900.00;4977983;28;20466;-84
2021/03/26 06:29:38;;;;;;;25.75;13.63;;;;;;;9.89;68.21;100898.09;4977567;28;20081;-83
2021/03/26 06:32:21;;;;;;;26.05;14.00;;;;;;;9.91;68.16;100894.50;4958672;28;20138;-83
2021/03/26 06:35:11;;;;;;;25.25;14.50;;;;;;;9.98;67.72;100888.03;4979855;28;20110;-83
2021/03/26 06:38:17;;;;;;;26.48;13.82;;;;;;;10.04;67.49;100887.81;4966853;28;20061;-85
2021/03/26 06:40:51;;;;;;;27.27;15.40;;;;;;;10.16;67.25;100886.50;4975059;28;20039;-84
2021/03/26 06:43:57;;;;;;;42.08;16.40;;;;;;;10.24;67.18;100888.88;4996382;28;20070;-85
2021/03/26 06:46:57;;;;;;;27.80;14.85;;;;;;;10.40;66.38;100879.44;4999599;28;20042;-83
2021/03/26 06:50:08;;;;;;;28.15;15.02;;;;;;;10.53;66.38;100888.66;4989889;28;20062;-84
2021/03/26 06:53:08;;;;;;;27.65;15.88;;;;;;;10.60;65.91;100876.88;4952198;28;20142;-83
2021/03/26 06:55:59;;;;;;;25.80;14.63;;;;;;;10.71;65.96;100876.44;4965156;28;20054;-85
2021/03/26 06:58:43;;;;;;;26.45;15.23;;;;;;;10.81;64.94;100878.69;4969186;28;20047;-85
2021/03/26 07:01:29;;;;;;;26.58;15.40;;;;;;;10.94;65.15;100879.03;4970223;28;20049;-84
2021/03/26 07:04:49;;;;;;;31.90;16.00;;;;;;;11.08;64.08;100874.03;4978451;28;20174;-84
2021/03/26 07:07:52;;;;;;;29.00;15.40;;;;;;;11.23;63.66;100872.53;4961849;28;20075;-85
2021/03/26 07:10:36;;;;;;;27.67;15.32;;;;;;;11.70;62.21;100859.03;4990136;28;20063;-84
2021/03/26 07:13:22;;;;;;;25.13;15.55;;;;;;;12.00;61.65;100870.94;4982916;28;20051;-85
2021/03/26 07:16:18;;;;;;;25.17;15.38;;;;;;;12.13;60.19;100871.25;4990635;28;20220;-83
2021/03/26 07:19:14;;;;;;;23.02;14.63;;;;;;;12.24;62.63;100882.25;4997270;28;20053;-85
2021/03/26 07:21:40;;;;;;;23.77;14.55;;;;;;;12.37;62.14;100882.53;4984364;28;20065;-84
2021/03/26 07:24:45;;;;;;;27.25;15.15;;;;;;;12.44;59.57;100890.13;4987611;28;20129;-85
2021/03/26 07:27:18;;;;;;;25.58;15.10;;;;;;;12.43;58.58;100880.47;4990045;28;20086;-85
2021/03/26 07:30:16;;;;;;;31.63;16.20;;;;;;;12.41;59.47;100876.16;4993551;28;20084;-84
2021/03/26 07:33:07;;;;;;;24.70;16.27;;;;;;;13.11;58.35;100875.41;4983839;28;20069;-85
2021/03/26 07:35:48;;;;;;;24.13;15.18;;;;;;;13.72;56.43;100877.63;4999480;28;20047;-83
2021/03/26 07:38:47;;;;;;;26.13;15.68;;;;;;;14.06;54.97;100880.22;4994077;28;20081;-84
2021/03/26 07:41:25;;;;;;;27.73;15.93;;;;;;;14.19;54.40;100875.94;4978271;28;20058;-84
2021/03/26 07:44:05;;;;;;;25.60;15.63;;;;;;;14.71;52.71;100875.78;4972413;28;20138;-85
2021/03/26 07:46:54;;;;;;;29.75;15.25;;;;;;;15.34;50.78;100873.88;4973652;28;20047;-86
2021/03/26 07:49:22;;;;;;;;;;;;;;;16.17;48.40;100877.75;4990652;28;20058;-85
2021/03/26 07:52:11;;;;;;;24.55;13.93;;;;;;;16.32;48.08;100879.47;4987254;28;19922;-86
2021/03/26 07:54:40;;;;;;;24.48;15.50;;;;;;;16.88;46.26;100880.31;5009938;28;20114;-85
2021/03/26 07:57:19;;;;;;;21.80;13.95;;;;;;;17.14;46.00;100879.47;4991056;28;20046;-83
2021/03/26 07:59:57;;;;;;;24.27;14.38;;;;;;;17.41;45.22;100876.75;4983983;28;20082;-85
2021/03/26 08:03:01;;;;;;;23.48;14.85;;;;;;;17.42;45.46;100878.47;4986832;28;20533;-79
2021/03/26 08:05:43;;;;;;;21.88;14.45;;;;;;;17.34;44.77;100872.75;4970902;28;20150;-87
2021/03/26 08:08:38;;;;;;;21.83;14.25;;;;;;;17.50;45.02;100876.13;4970259;28;20173;-85
2021/03/26 08:11:21;;;;;;;22.55;14.23;;;;;;;17.93;43.71;100867.84;4988977;28;20046;-85
2021/03/26 08:14:02;;;;;;;21.23;13.93;;;;;;;18.50;42.84;100868.19;4986834;28;20074;-85
2021/03/26 08:17:02;;;;;;;25.35;15.68;;;;;;;19.04;41.42;100875.88;4996495;28;20057;-84
2021/03/26 08:19:56;;;;;;;24.73;14.00;;;;;;;19.50;40.63;100872.44;4988748;28;20170;-84
2021/03/26 08:22:57;;;;;;;19.00;13.95;;;;;;;19.67;39.20;100868.47;4985176;28;20054;-85
2021/03/26 08:25:42;;;;;;;21.50;14.60;;;;;;;19.35;40.49;100874.44;4990500;28;20446;-85
2021/03/26 08:28:21;;;;;;;18.58;14.35;;;;;;;19.33;40.12;100868.31;4981859;28;20065;-84
2021/03/26 08:31:24;;;;;;;23.05;13.82;;;;;;;19.27;41.80;100877.69;4967146;28;20055;-84
2021/03/26 08:34:15;;;;;;;25.45;13.80;;;;;;;19.76;40.97;100870.44;4967124;28;20068;-85
2021/03/26 08:36:49;;;;;;;21.98;15.55;;;;;;;19.92;38.37;100869.09;4989151;28;20090;-83
2021/03/26 08:39:36;;;;;;;21.33;15.55;;;;;;;19.72;39.03;100867.09;4988231;28;20066;-84
2021/03/26 08:42:12;;;;;;;25.98;15.55;;;;;;;19.49;38.88;100865.31;5005552;28;20125;-85
2021/03/26 08:44:40;;;;;;;22.60;16.13;;;;;;;18.94;40.47;100874.84;4971035;28;20051;-85
2021/03/26 08:47:18;;;;;;;22.92;15.25;;;;;;;19.19;40.31;100871.19;4983799;28;20458;-84
2021/03/26 08:50:03;;;;;;;21.83;15.05;;;;;;;19.31;40.71;100866.72;4998304;28;20042;-83
2021/03/26 08:52:45;;;;;;;20.55;15.18;;;;;;;19.27;40.11;100866.94;4996986;28;20054;-82
2021/03/26 08:55:18;;;;;;;23.83;17.33;;;;;;;18.62;40.83;100870.97;4983518;28;20122;-83
2021/03/26 08:57:50;;;;;;;23.65;16.98;;;;;;;17.91;42.88;100868.94;4990196;28;20059;-83
2021/03/26 09:00:32;;;;;;;24.33;16.42;;;;;;;17.41;44.06;100870.56;4986699;28;20079;-84
2021/03/26 09:03:13;;;;;;;26.35;18.45;;;;;;;16.58;45.82;100868.91;4983067;28;20051;-85
2021/03/26 09:06:31;;;;;;;24.50;17.48;;;;;;;16.08;47.73;100864.94;4989830;28;20054;-83
2021/03/26 09:09:15;;;;;;;28.13;17.85;;;;;;;16.14;48.33;100860.09;4968628;28;20061;-84
2021/03/26 09:11:52;;;;;;;26.45;17.30;;;;;;;16.30;48.20;100859.13;4987597;28;20069;-86
2021/03/26 09:14:40;;;;;;;25.98;17.38;;;;;;;16.29;48.09;100860.06;4994662;28;20075;-84
2021/03/26 09:17:37;;;;;;;28.50;18.00;;;;;;;16.14;47.80;100854.75;4997158;28;20079;-84
2021/03/26 09:20:32;;;;;;;28.33;17.05;;;;;;;15.95;49.25;100845.28;4992753;28;20054;-85
2021/03/26 09:23:32;;;;;;;28.08;18.15;;;;;;;15.73;48.73;100845.78;5000924;28;20062;-83
2021/03/26 09:26:36;;;;;;;27.13;18.63;;;;;;;15.52;49.88;100853.22;4985369;28;20058;-82
2021/03/26 09:29:12;;;;;;;29.75;18.67;;;;;;;15.49;49.81;100842.75;4972014;28;20051;-83
2021/03/26 09:31:48;;;;;;;26.75;17.65;;;;;;;15.49;50.72;100847.22;4978281;28;20078;-82
2021/03/26 09:34:31;;;;;;;26.58;17.80;;;;;;;15.35;49.98;100842.72;4987521;28;20140;-84
2021/03/26 09:37:14;;;;;;;27.40;18.05;;;;;;;15.21;50.31;100840.00;4985498;28;20046;-85
2021/03/26 09:39:49;;;;;;;27.95;17.63;;;;;;;14.97;50.95;100837.81;4996953;28;20081;-84
2021/03/26 09:42:47;;;;;;;30.08;17.35;;;;;;;15.02;51.52;100833.06;4997440;28;20055;-85
2021/03/26 09:45:39;;;;;;;26.90;16.95;;;;;;;15.02;50.80;100827.75;4994435;28;20058;-82
2021/03/26 09:48:24;;;;;;;27.83;17.63;;;;;;;15.09;50.53;100823.78;4963881;28;20054;-84
2021/03/26 09:51:12;;;;;;;25.45;16.48;;;;;;;15.28;50.48;100825.34;4979958;28;20058;-84
2021/03/26 09:53:41;;;;;;;26.42;15.88;;;;;;;15.37;49.21;100817.66;4979149;28;20081;-86
2021/03/26 09:56:25;;;;;;;25.65;16.63;;;;;;;15.33;49.83;100820.59;4983920;28;20074;-85
2021/03/26 09:59:05;;;;;;;24.48;16.65;;;;;;;15.42;49.75;100812.88;4977637;28;20118;-85
2021/03/26 10:01:38;;;;;;;27.40;16.88;;;;;;;15.52;49.47;100810.53;4997332;28;20078;-83
2021/03/26 10:04:16;;;;;;;25.13;15.70;;;;;;;15.38;49.21;100813.19;4991877;28;20490;-85
2021/03/26 10:07:16;;;;;;;30.35;17.40;;;;;;;15.28;49.86;100806.66;4993953;28;20114;-86
2021/03/26 10:09:48;;;;;;;26.17;16.40;;;;;;;15.37;48.44;100795.44;4983685;28;20077;-85
2021/03/26 10:12:24;;;;;;;26.45;16.05;;;;;;;15.33;48.69;100800.09;4972643;28;20122;-86
2021/03/26 10:14:53;;;;;;;27.42;17.35;;;;;;;15.44;48.49;100800.31;4974969;28;20082;-87
2021/03/26 10:17:41;;;;;;;23.38;16.40;;;;;;;15.65;48.53;100786.63;4976616;28;20047;-85
2021/03/26 10:20:42;;;;;;;22.80;15.80;;;;;;;15.65;47.13;100794.66;4982514;28;20686;-88
2021/03/26 10:23:23;;;;;;;24.95;16.25;;;;;;;15.82;47.88;100794.47;5013141;28;20486;-84
2021/03/26 10:26:20;;;;;;;23.90;15.85;;;;;;;15.99;47.29;100783.59;4982142;28;20058;-85
2021/03/26 10:28:55;;;;;;;21.05;14.05;;;;;;;16.17;45.80;100778.03;4993668;28;20058;-85
2021/03/26 10:31:30;;;;;;;21.52;13.52;;;;;;;16.33;45.92;100773.41;4980799;28;20089;-86
2021/03/26 10:34:00;;;;;;;22.60;14.38;;;;;;;16.40;45.55;100772.91;4992658;28;20117;-85
2021/03/26 10:36:52;;;;;;;23.92;13.88;;;;;;;16.55;45.26;100772.84;4970694;28;20885;-86
2021/03/26 10:39:50;;;;;;;19.98;12.38;;;;;;;16.59;43.54;100771.69;4988682;28;20043;-85
2021/03/26 10:42:29;;;;;;;16.05;10.82;;;;;;;16.63;42.45;100759.88;4985376;28;20464;-84
2021/03/26 10:45:22;;;;;;;19.08;12.55;;;;;;;16.44;43.65;100752.19;4982592;28;20078;-85
2021/03/26 10:48:08;;;;;;;18.48;11.70;;;;;;;16.54;44.51;100750.59;4974474;28;24683;-85
2021/03/26 10:50:44;;;;;;;15.00;11.05;;;;;;;16.69;43.31;100744.28;4979888;28;20058;-85
2021/03/26 10:53:38;;;;;;;17.48;10.93;;;;;;;16.27;43.53;100739.06;4985746;28;20150;-86
2021/03/26 10:56:20;;;;;;;17.40;11.40;;;;;;;15.99;44.02;100738.19;4986572;28;20102;-86
2021/03/26 10:58:55;;;;;;;16.80;10.43;;;;;;;15.91;44.22;100731.59;4970359;28;20053;-87
2021/03/26 11:01:25;;;;;;;13.25;9.18;;;;;;;15.91;44.33;100728.91;4989577;28;20050;-86
2021/03/26 11:04:15;;;;;;;12.85;9.10;;;;;;;15.87;44.18;100716.75;4989449;28;20052;-87
2021/03/26 11:06:49;;;;;;;15.50;10.10;;;;;;;15.96;44.00;100702.78;4988406;28;20062;-86
2021/03/26 11:09:40;;;;;;;16.33;12.25;;;;;;;16.26;44.33;100723.97;4978390;28;20082;-86
2021/03/26 11:12:21;;;;;;;16.60;10.95;;;;;;;16.54;42.83;100709.66;4974976;28;20055;-85
2021/03/26 11:15:15;;;;;;;14.57;10.63;;;;;;;16.74;43.14;100706.53;4973573;28;20062;-85
2021/03/26 11:18:01;;;;;;;18.35;11.57;;;;;;;16.91;42.72;100708.91;4976172;28;20810;-87
2021/03/26 11:20:50;;;;;;;18.98;12.18;;;;;;;16.89;42.33;100694.78;4984264;28;20042;-85
2021/03/26 11:23:37;;;;;;;15.55;10.38;;;;;;;16.79;42.46;100688.38;4986795;28;20110;-86
2021/03/26 11:26:03;;;;;;;15.48;10.02;;;;;;;16.96;40.39;100684.53;4991161;28;20070;-84
2021/03/26 11:28:40;;;;;;;9.43;7.47;;;;;;;17.04;39.45;100692.88;4999358;28;20039;-86
2021/03/26 11:31:31;;;;;;;10.98;6.90;;;;;;;16.88;39.39;100682.38;5011413;28;20066;-85
2021/03/26 11:34:12;;;;;;;13.05;9.35;;;;;;;16.61;40.45;100674.38;4999399;28;20039;-86
2021/03/26 11:36:48;;;;;;;15.07;10.60;;;;;;;16.79;41.77;100666.97;4999108;28;20074;-86
2021/03/26 11:39:32;;;;;;;14.43;9.70;;;;;;;16.88;41.57;100666.31;4987675;28;20050;-87
2021/03/26 11:42:08;;;;;;;15.93;8.88;;;;;;;17.06;39.61;100664.19;4993604;28;20497;-87
2021/03/26 11:44:57;;;;;;;8.80;6.55;;;;;;;17.39;39.21;100658.31;4984079;28;20063;-86
2021/03/26 11:47:32;;;;;;;10.93;7.88;;;;;;;17.65;37.38;100645.75;4979022;28;20035;-85
2021/03/26 11:50:14;;;;;;;12.73;7.57;;;;;;;17.88;36.84;100645.81;4996948;28;20031;-87
2021/03/26 11:53:15;;;;;;;12.95;8.43;;;;;;;17.96;37.06;100649.72;5005973;28;20118;-86
2021/03/26 11:56:13;;;;;;;14.27;8.88;;;;;;;17.54;37.86;100641.16;5005405;28;20113;-86
2021/03/26 11:59:25;;;;;;;13.40;9.88;;;;;;;17.15;39.25;100629.66;5001044;28;20050;-85
2021/03/26 12:02:21;;;;;;;13.52;8.77;;;;;;;17.56;39.30;100620.47;4998090;28;20058;-86
2021/03/26 12:05:12;;;;;;;13.40;8.82;;;;;;;17.82;38.13;100624.81;4982329;28;20047;-85
2021/03/26 12:07:59;;;;;;;15.57;9.35;;;;;;;18.09;37.56;100623.75;4984305;28;20046;-87
2021/03/26 12:10:37;;;;;;;11.05;8.75;;;;;;;18.24;38.23;100611.88;4982823;28;20058;-86
2021/03/26 12:13:33;;;;;;;15.20;10.00;;;;;;;18.35;37.91;100617.28;4979654;28;20134;-85
2021/03/26 12:16:19;;;;;;;14.32;9.50;;;;;;;18.12;38.25;100615.47;4973148;28;20544;-87